RYR9QG EGNV-LEPA
Flight info
| Callsign | RYR9QG |
|---|---|
| Flight time | 2h 29m |
| Altitude | 37000 |
| Route | GASKO P16 RIBEL UP16 CROFT UL612 HON DCT SITET UN859 SOPIL DCT BALAN DCT EVPOK DCT NARAK DCT GAI DCT LOMRA DCT ROCAN DCT IBRAP N13 LORES |
| Aircraft | A320/M-SDE3FGHIRWY/LB1 |
Departure
| Time | 2026-05-09 00:31 |
|---|---|
| Airport | Teesside International Airport (EGNV) |
Arrival
| Time | 2026-05-09 03:01 |
|---|---|
| Airport | Palma de Mallorca Airport (LEPA) |
| Time | Latitude | Longitude | Altitude | Speed | Heading |
|---|---|---|---|---|---|
| 2026-05-09 00:14 | 54.51063 | -1.43481 | 127 ft | 0 kts | 328° |
| 2026-05-09 00:23 | 54.51054 | -1.43471 | 127 ft | 2 kts | 328° |
| 2026-05-09 00:24 | 54.51041 | -1.43458 | 127 ft | 2 kts | 328° |
| 2026-05-09 00:24 | 54.51028 | -1.43445 | 127 ft | 2 kts | 328° |
| 2026-05-09 00:24 | 54.51015 | -1.43433 | 126 ft | 2 kts | 349° |
| 2026-05-09 00:24 | 54.51000 | -1.43433 | 126 ft | 2 kts | 10° |
| 2026-05-09 00:25 | 54.50986 | -1.43441 | 126 ft | 2 kts | 32° |
| 2026-05-09 00:25 | 54.50975 | -1.43458 | 126 ft | 1 kts | 54° |
| 2026-05-09 00:25 | 54.50971 | -1.43468 | 126 ft | 1 kts | 63° |
| 2026-05-09 00:25 | 54.50970 | -1.43472 | 126 ft | 0 kts | 60° |
| 2026-05-09 00:27 | 54.50973 | -1.43461 | 126 ft | 2 kts | 60° |
| 2026-05-09 00:27 | 54.50988 | -1.43417 | 126 ft | 5 kts | 60° |
| 2026-05-09 00:27 | 54.51014 | -1.43340 | 126 ft | 8 kts | 58° |
| 2026-05-09 00:28 | 54.51050 | -1.43238 | 127 ft | 10 kts | 59° |
| 2026-05-09 00:28 | 54.51064 | -1.43092 | 126 ft | 14 kts | 92° |
| 2026-05-09 00:28 | 54.51058 | -1.42907 | 124 ft | 16 kts | 92° |
| 2026-05-09 00:28 | 54.51061 | -1.42702 | 123 ft | 17 kts | 69° |
| 2026-05-09 00:29 | 54.51141 | -1.42527 | 122 ft | 18 kts | 47° |
| 2026-05-09 00:29 | 54.51228 | -1.42362 | 123 ft | 18 kts | 47° |
| 2026-05-09 00:29 | 54.51319 | -1.42192 | 122 ft | 19 kts | 47° |
| 2026-05-09 00:29 | 54.51413 | -1.42018 | 120 ft | 20 kts | 46° |
| 2026-05-09 00:30 | 54.51511 | -1.41832 | 119 ft | 20 kts | 47° |
| 2026-05-09 00:30 | 54.51586 | -1.41705 | 119 ft | 10 kts | 26° |
| 2026-05-09 00:30 | 54.51595 | -1.41669 | 119 ft | 4 kts | 189° |
| 2026-05-09 00:30 | 54.51565 | -1.41729 | 119 ft | 9 kts | 228° |
| 2026-05-09 00:31 | 54.51358 | -1.42118 | 122 ft | 81 kts | 227° |
| 2026-05-09 00:31 | 54.50814 | -1.43134 | 126 ft | 144 kts | 227° |
| 2026-05-09 00:31 | 54.50077 | -1.44487 | 543 ft | 159 kts | 225° |
| 2026-05-09 00:31 | 54.49316 | -1.45862 | 1194 ft | 163 kts | 224° |
| 2026-05-09 00:32 | 54.48551 | -1.47284 | 1889 ft | 165 kts | 224° |
| 2026-05-09 00:32 | 54.47749 | -1.48799 | 2420 ft | 179 kts | 224° |
| 2026-05-09 00:32 | 54.46876 | -1.50439 | 2919 ft | 195 kts | 225° |
| 2026-05-09 00:32 | 54.45909 | -1.52248 | 3344 ft | 218 kts | 225° |
| 2026-05-09 00:33 | 54.44835 | -1.54252 | 3889 ft | 237 kts | 225° |
| 2026-05-09 00:33 | 54.43691 | -1.56390 | 4455 ft | 255 kts | 225° |
| 2026-05-09 00:33 | 54.42461 | -1.58684 | 5220 ft | 264 kts | 226° |
| 2026-05-09 00:33 | 54.41226 | -1.60985 | 6153 ft | 266 kts | 226° |
| 2026-05-09 00:34 | 54.39992 | -1.63280 | 7069 ft | 268 kts | 226° |
| 2026-05-09 00:34 | 54.38726 | -1.65632 | 7952 ft | 271 kts | 226° |
| 2026-05-09 00:34 | 54.37460 | -1.67982 | 8835 ft | 273 kts | 227° |
| 2026-05-09 00:34 | 54.36179 | -1.70354 | 9669 ft | 276 kts | 227° |
| 2026-05-09 00:35 | 54.34871 | -1.72777 | 10515 ft | 279 kts | 227° |
| 2026-05-09 00:35 | 54.33532 | -1.75254 | 11067 ft | 293 kts | 227° |
| 2026-05-09 00:35 | 54.32127 | -1.77850 | 11567 ft | 306 kts | 227° |
| 2026-05-09 00:35 | 54.30677 | -1.80523 | 12298 ft | 310 kts | 227° |
| 2026-05-09 00:36 | 54.29204 | -1.83237 | 13081 ft | 312 kts | 227° |
| 2026-05-09 00:36 | 54.27731 | -1.85945 | 13810 ft | 314 kts | 227° |
| 2026-05-09 00:36 | 54.26253 | -1.88660 | 14517 ft | 317 kts | 227° |
| 2026-05-09 00:36 | 54.24748 | -1.91424 | 15200 ft | 320 kts | 227° |
| 2026-05-09 00:37 | 54.23239 | -1.94191 | 15880 ft | 322 kts | 227° |
| 2026-05-09 00:37 | 54.21670 | -1.96884 | 16539 ft | 325 kts | 224° |
| 2026-05-09 00:37 | 54.20034 | -1.99521 | 17189 ft | 327 kts | 224° |
| 2026-05-09 00:37 | 54.18386 | -2.02173 | 17836 ft | 328 kts | 224° |
| 2026-05-09 00:38 | 54.16709 | -2.04869 | 18455 ft | 331 kts | 224° |
| 2026-05-09 00:38 | 54.15054 | -2.07524 | 19036 ft | 333 kts | 224° |
| 2026-05-09 00:38 | 54.13376 | -2.10212 | 19621 ft | 335 kts | 224° |
| 2026-05-09 00:38 | 54.11677 | -2.12932 | 20181 ft | 337 kts | 224° |
| 2026-05-09 00:39 | 54.09975 | -2.15651 | 20727 ft | 339 kts | 224° |
| 2026-05-09 00:39 | 54.08247 | -2.18410 | 21260 ft | 341 kts | 224° |
| 2026-05-09 00:39 | 54.06516 | -2.21169 | 21771 ft | 344 kts | 224° |
| 2026-05-09 00:39 | 54.04776 | -2.23940 | 22274 ft | 346 kts | 224° |
| 2026-05-09 00:40 | 54.02970 | -2.26661 | 22766 ft | 348 kts | 219° |
| 2026-05-09 00:40 | 54.00974 | -2.28950 | 23235 ft | 352 kts | 212° |
| 2026-05-09 00:40 | 53.98761 | -2.30782 | 23692 ft | 356 kts | 205° |
| 2026-05-09 00:41 | 53.94149 | -2.33802 | 24621 ft | 360 kts | 204° |
| 2026-05-09 00:41 | 53.91805 | -2.35307 | 25061 ft | 362 kts | 204° |
| 2026-05-09 00:41 | 53.89430 | -2.36832 | 25489 ft | 365 kts | 204° |
| 2026-05-09 00:41 | 53.87077 | -2.38341 | 25926 ft | 366 kts | 204° |
| 2026-05-09 00:42 | 53.84695 | -2.39871 | 26327 ft | 369 kts | 204° |
| 2026-05-09 00:42 | 53.82250 | -2.41436 | 26724 ft | 372 kts | 204° |
| 2026-05-09 00:42 | 53.79850 | -2.42971 | 27116 ft | 374 kts | 204° |
| 2026-05-09 00:42 | 53.77397 | -2.44539 | 27518 ft | 376 kts | 204° |
| 2026-05-09 00:43 | 53.74953 | -2.46098 | 27879 ft | 378 kts | 204° |
| 2026-05-09 00:43 | 53.72501 | -2.47663 | 28232 ft | 381 kts | 204° |
| 2026-05-09 00:43 | 53.70017 | -2.49243 | 28591 ft | 383 kts | 204° |
| 2026-05-09 00:43 | 53.67515 | -2.50831 | 28928 ft | 385 kts | 203° |
| 2026-05-09 00:44 | 53.64906 | -2.51972 | 29231 ft | 392 kts | 192° |
| 2026-05-09 00:44 | 53.62177 | -2.52164 | 29546 ft | 400 kts | 180° |
| 2026-05-09 00:44 | 53.59415 | -2.51388 | 29852 ft | 408 kts | 169° |
| 2026-05-09 00:44 | 53.56706 | -2.49707 | 30188 ft | 413 kts | 162° |
| 2026-05-09 00:45 | 53.54086 | -2.47848 | 30512 ft | 415 kts | 162° |
| 2026-05-09 00:45 | 53.51425 | -2.45939 | 30797 ft | 417 kts | 162° |
| 2026-05-09 00:45 | 53.48756 | -2.44036 | 31085 ft | 419 kts | 162° |
| 2026-05-09 00:45 | 53.46046 | -2.42117 | 31372 ft | 421 kts | 162° |
| 2026-05-09 00:46 | 53.43347 | -2.40215 | 31637 ft | 423 kts | 162° |
| 2026-05-09 00:46 | 53.40621 | -2.38299 | 31895 ft | 425 kts | 162° |
| 2026-05-09 00:46 | 53.37886 | -2.36376 | 32160 ft | 427 kts | 162° |
| 2026-05-09 00:46 | 53.35166 | -2.34466 | 32413 ft | 428 kts | 162° |
| 2026-05-09 00:47 | 53.32414 | -2.32536 | 32652 ft | 430 kts | 162° |
| 2026-05-09 00:47 | 53.29667 | -2.30612 | 32880 ft | 432 kts | 162° |
| 2026-05-09 00:47 | 53.26880 | -2.28666 | 33086 ft | 434 kts | 162° |
| 2026-05-09 00:47 | 53.24081 | -2.26712 | 33354 ft | 434 kts | 162° |
| 2026-05-09 00:48 | 53.21336 | -2.24797 | 33642 ft | 434 kts | 162° |
| 2026-05-09 00:48 | 53.18523 | -2.22839 | 33938 ft | 433 kts | 162° |
| 2026-05-09 00:48 | 53.15758 | -2.20917 | 34226 ft | 432 kts | 162° |
| 2026-05-09 00:48 | 53.12977 | -2.18987 | 34511 ft | 431 kts | 162° |
| 2026-05-09 00:49 | 53.10231 | -2.17088 | 34758 ft | 431 kts | 162° |
| 2026-05-09 00:49 | 53.07441 | -2.15164 | 34985 ft | 431 kts | 162° |
| 2026-05-09 00:49 | 53.04678 | -2.13257 | 35209 ft | 430 kts | 162° |
| 2026-05-09 00:49 | 53.01915 | -2.11353 | 35430 ft | 430 kts | 162° |
| 2026-05-09 00:50 | 52.99154 | -2.09453 | 35617 ft | 430 kts | 161° |
| 2026-05-09 00:50 | 52.96402 | -2.07560 | 35786 ft | 431 kts | 161° |
| 2026-05-09 00:50 | 52.93644 | -2.05664 | 35934 ft | 432 kts | 161° |
| 2026-05-09 00:50 | 52.90872 | -2.03762 | 36077 ft | 432 kts | 161° |
| 2026-05-09 00:51 | 52.88079 | -2.01848 | 36237 ft | 433 kts | 161° |
| 2026-05-09 00:51 | 52.85329 | -1.99968 | 36384 ft | 433 kts | 161° |
| 2026-05-09 00:51 | 52.82520 | -1.98047 | 36508 ft | 434 kts | 161° |
| 2026-05-09 00:51 | 52.79734 | -1.96144 | 36633 ft | 435 kts | 161° |
| 2026-05-09 00:52 | 52.76965 | -1.94256 | 36785 ft | 436 kts | 161° |
| 2026-05-09 00:52 | 52.74153 | -1.92340 | 36930 ft | 437 kts | 161° |
| 2026-05-09 00:52 | 52.71334 | -1.90423 | 37062 ft | 438 kts | 161° |
| 2026-05-09 00:52 | 52.68491 | -1.88495 | 37118 ft | 438 kts | 161° |
| 2026-05-09 00:53 | 52.62854 | -1.84675 | 37131 ft | 438 kts | 161° |
| 2026-05-09 00:53 | 52.57227 | -1.80871 | 37129 ft | 437 kts | 161° |
| 2026-05-09 00:54 | 52.51623 | -1.77095 | 37128 ft | 437 kts | 161° |
| 2026-05-09 00:54 | 52.45977 | -1.73298 | 37132 ft | 437 kts | 161° |
| 2026-05-09 00:55 | 52.40345 | -1.69524 | 37134 ft | 438 kts | 160° |
| 2026-05-09 00:55 | 52.34763 | -1.65688 | 37130 ft | 439 kts | 158° |
| 2026-05-09 00:56 | 52.29236 | -1.61396 | 37133 ft | 439 kts | 158° |
| 2026-05-09 00:56 | 52.23750 | -1.57159 | 37132 ft | 440 kts | 157° |
| 2026-05-09 00:57 | 52.18201 | -1.52878 | 37132 ft | 439 kts | 157° |
| 2026-05-09 00:57 | 52.12704 | -1.48644 | 37130 ft | 439 kts | 157° |
| 2026-05-09 00:58 | 52.07172 | -1.44393 | 37127 ft | 439 kts | 157° |
| 2026-05-09 00:58 | 52.01686 | -1.40188 | 37127 ft | 439 kts | 157° |
| 2026-05-09 00:59 | 51.96173 | -1.35973 | 37127 ft | 439 kts | 157° |
| 2026-05-09 00:59 | 51.90616 | -1.31736 | 37129 ft | 439 kts | 158° |
| 2026-05-09 01:00 | 51.85108 | -1.27547 | 37131 ft | 439 kts | 158° |
| 2026-05-09 01:00 | 51.79588 | -1.23361 | 37130 ft | 439 kts | 158° |
| 2026-05-09 01:01 | 51.74064 | -1.19185 | 37133 ft | 439 kts | 158° |
| 2026-05-09 01:01 | 51.68550 | -1.15026 | 37134 ft | 439 kts | 158° |
| 2026-05-09 01:02 | 51.63042 | -1.10885 | 37133 ft | 439 kts | 157° |
| 2026-05-09 01:02 | 51.57548 | -1.06762 | 37132 ft | 439 kts | 157° |
| 2026-05-09 01:03 | 51.51998 | -1.02612 | 37131 ft | 439 kts | 157° |
| 2026-05-09 01:03 | 51.46468 | -0.98488 | 37126 ft | 439 kts | 157° |
| 2026-05-09 01:04 | 51.40907 | -0.94349 | 37122 ft | 439 kts | 157° |
| 2026-05-09 01:04 | 51.35368 | -0.90237 | 37126 ft | 439 kts | 157° |
| 2026-05-09 01:05 | 51.29848 | -0.86151 | 37124 ft | 439 kts | 157° |
| 2026-05-09 01:06 | 51.21531 | -0.80017 | 37115 ft | 439 kts | 157° |
| 2026-05-09 01:06 | 51.15999 | -0.75950 | 37116 ft | 439 kts | 157° |
| 2026-05-09 01:07 | 51.10439 | -0.71874 | 37117 ft | 439 kts | 157° |
| 2026-05-09 01:07 | 51.04877 | -0.67807 | 37115 ft | 440 kts | 157° |
| 2026-05-09 01:08 | 50.99345 | -0.63773 | 37104 ft | 440 kts | 157° |
| 2026-05-09 01:08 | 50.93776 | -0.59721 | 37104 ft | 440 kts | 157° |
| 2026-05-09 01:09 | 50.88221 | -0.55691 | 37103 ft | 440 kts | 157° |
| 2026-05-09 01:09 | 50.82664 | -0.51670 | 37101 ft | 439 kts | 156° |
| 2026-05-09 01:10 | 50.77116 | -0.47664 | 37101 ft | 438 kts | 157° |
| 2026-05-09 01:10 | 50.71606 | -0.43697 | 37100 ft | 439 kts | 157° |
| 2026-05-09 01:11 | 50.66041 | -0.39702 | 37095 ft | 439 kts | 157° |
| 2026-05-09 01:11 | 50.60469 | -0.35712 | 37091 ft | 438 kts | 156° |
| 2026-05-09 01:12 | 50.54959 | -0.31778 | 37093 ft | 437 kts | 157° |
| 2026-05-09 01:12 | 50.49387 | -0.27808 | 37090 ft | 437 kts | 157° |
| 2026-05-09 01:13 | 50.43883 | -0.23896 | 37087 ft | 437 kts | 157° |
| 2026-05-09 01:13 | 50.38343 | -0.19968 | 37085 ft | 437 kts | 157° |
| 2026-05-09 01:14 | 50.32772 | -0.16028 | 37079 ft | 437 kts | 157° |
| 2026-05-09 01:14 | 50.27236 | -0.12121 | 37083 ft | 437 kts | 157° |
| 2026-05-09 01:15 | 50.21692 | -0.08218 | 37079 ft | 437 kts | 157° |
| 2026-05-09 01:15 | 50.16137 | -0.04318 | 37075 ft | 437 kts | 157° |
| 2026-05-09 01:16 | 50.10561 | -0.00684 | 37068 ft | 435 kts | 161° |
| 2026-05-09 01:16 | 50.04767 | 0.02020 | 37066 ft | 435 kts | 167° |
| 2026-05-09 01:17 | 49.95954 | 0.05492 | 37067 ft | 434 kts | 166° |
| 2026-05-09 01:17 | 49.90139 | 0.07784 | 37060 ft | 435 kts | 166° |
| 2026-05-09 01:18 | 49.84248 | 0.10097 | 37061 ft | 435 kts | 166° |
| 2026-05-09 01:18 | 49.78378 | 0.12396 | 37057 ft | 435 kts | 166° |
| 2026-05-09 01:19 | 49.72529 | 0.14679 | 37059 ft | 434 kts | 167° |
| 2026-05-09 01:19 | 49.66657 | 0.16972 | 37060 ft | 433 kts | 166° |
| 2026-05-09 01:20 | 49.60861 | 0.19305 | 37066 ft | 433 kts | 166° |
| 2026-05-09 01:20 | 49.55024 | 0.21661 | 37065 ft | 434 kts | 166° |
| 2026-05-09 01:21 | 49.49166 | 0.24016 | 37067 ft | 433 kts | 166° |
| 2026-05-09 01:21 | 49.43344 | 0.26350 | 37069 ft | 433 kts | 166° |
| 2026-05-09 01:22 | 49.37524 | 0.28680 | 37066 ft | 432 kts | 166° |
| 2026-05-09 01:22 | 49.31692 | 0.31004 | 37063 ft | 432 kts | 166° |
| 2026-05-09 01:23 | 49.25888 | 0.33408 | 37063 ft | 432 kts | 165° |
| 2026-05-09 01:23 | 49.20119 | 0.35849 | 37061 ft | 431 kts | 165° |
| 2026-05-09 01:24 | 49.14350 | 0.38281 | 37057 ft | 431 kts | 165° |
| 2026-05-09 01:24 | 49.08543 | 0.40718 | 37055 ft | 431 kts | 165° |
| 2026-05-09 01:25 | 49.02770 | 0.43135 | 37052 ft | 431 kts | 165° |
| 2026-05-09 01:25 | 48.97004 | 0.45544 | 37052 ft | 430 kts | 165° |
| 2026-05-09 01:26 | 48.91235 | 0.47949 | 37051 ft | 430 kts | 164° |
| 2026-05-09 01:26 | 48.85466 | 0.50350 | 37051 ft | 430 kts | 164° |
| 2026-05-09 01:27 | 48.79666 | 0.52755 | 37041 ft | 430 kts | 165° |
| 2026-05-09 01:27 | 48.73880 | 0.55057 | 37045 ft | 430 kts | 165° |
| 2026-05-09 01:28 | 48.68124 | 0.57297 | 37036 ft | 429 kts | 165° |
| 2026-05-09 01:28 | 48.62340 | 0.59557 | 37040 ft | 430 kts | 165° |
| 2026-05-09 01:29 | 48.56545 | 0.61821 | 37040 ft | 429 kts | 165° |
| 2026-05-09 01:29 | 48.50787 | 0.64074 | 37030 ft | 429 kts | 165° |
| 2026-05-09 01:30 | 48.45038 | 0.66410 | 37032 ft | 428 kts | 165° |
| 2026-05-09 01:30 | 48.39305 | 0.68749 | 37034 ft | 429 kts | 165° |
| 2026-05-09 01:31 | 48.33550 | 0.71088 | 37030 ft | 429 kts | 165° |
| 2026-05-09 01:31 | 48.27789 | 0.73419 | 37022 ft | 428 kts | 165° |
| 2026-05-09 01:32 | 48.22080 | 0.75699 | 37018 ft | 428 kts | 165° |
| 2026-05-09 01:32 | 48.16298 | 0.77965 | 37021 ft | 428 kts | 165° |
| 2026-05-09 01:33 | 48.10571 | 0.80211 | 37025 ft | 429 kts | 165° |
| 2026-05-09 01:33 | 48.04805 | 0.82471 | 37021 ft | 428 kts | 165° |
| 2026-05-09 01:34 | 47.99062 | 0.84718 | 37017 ft | 428 kts | 165° |
| 2026-05-09 01:34 | 47.93323 | 0.86961 | 37004 ft | 427 kts | 165° |
| 2026-05-09 01:35 | 47.87548 | 0.89213 | 37008 ft | 427 kts | 165° |
| 2026-05-09 01:35 | 47.81811 | 0.91440 | 37014 ft | 428 kts | 165° |
| 2026-05-09 01:36 | 47.76059 | 0.93663 | 37005 ft | 428 kts | 166° |
| 2026-05-09 01:36 | 47.70307 | 0.95884 | 36998 ft | 429 kts | 166° |
| 2026-05-09 01:37 | 47.64534 | 0.98113 | 37003 ft | 428 kts | 166° |
| 2026-05-09 01:37 | 47.58799 | 1.00324 | 37006 ft | 427 kts | 166° |
| 2026-05-09 01:38 | 47.53045 | 1.02537 | 36994 ft | 427 kts | 166° |
| 2026-05-09 01:38 | 47.47242 | 1.04634 | 36988 ft | 427 kts | 169° |
| 2026-05-09 01:39 | 47.41375 | 1.05898 | 37004 ft | 428 kts | 175° |
| 2026-05-09 01:39 | 47.35424 | 1.06223 | 36999 ft | 428 kts | 181° |
| 2026-05-09 01:40 | 47.29477 | 1.06079 | 36999 ft | 428 kts | 180° |
| 2026-05-09 01:40 | 47.23518 | 1.05953 | 37007 ft | 428 kts | 180° |
| 2026-05-09 01:41 | 47.17551 | 1.05822 | 36996 ft | 427 kts | 181° |
| 2026-05-09 01:41 | 47.11625 | 1.05689 | 36988 ft | 427 kts | 181° |
| 2026-05-09 01:42 | 47.05706 | 1.05555 | 36983 ft | 427 kts | 181° |
| 2026-05-09 01:42 | 46.99742 | 1.05381 | 36995 ft | 427 kts | 181° |
| 2026-05-09 01:43 | 46.93803 | 1.05112 | 36994 ft | 427 kts | 181° |
| 2026-05-09 01:43 | 46.87850 | 1.04848 | 36983 ft | 428 kts | 182° |
| 2026-05-09 01:44 | 46.81915 | 1.04593 | 36983 ft | 427 kts | 182° |
| 2026-05-09 01:44 | 46.75955 | 1.04343 | 36988 ft | 427 kts | 182° |
| 2026-05-09 01:45 | 46.70045 | 1.04094 | 36987 ft | 427 kts | 182° |
| 2026-05-09 01:45 | 46.64081 | 1.03845 | 36995 ft | 427 kts | 182° |
| 2026-05-09 01:46 | 46.58137 | 1.03598 | 36988 ft | 426 kts | 182° |
| 2026-05-09 01:46 | 46.52224 | 1.03891 | 36993 ft | 427 kts | 176° |
| 2026-05-09 01:47 | 46.46316 | 1.05119 | 36986 ft | 430 kts | 170° |
| 2026-05-09 01:47 | 46.40470 | 1.07042 | 36990 ft | 431 kts | 169° |
| 2026-05-09 01:48 | 46.34619 | 1.08988 | 36985 ft | 432 kts | 169° |
| 2026-05-09 01:48 | 46.28748 | 1.10937 | 36980 ft | 432 kts | 169° |
| 2026-05-09 01:49 | 46.22916 | 1.12874 | 36998 ft | 433 kts | 169° |
| 2026-05-09 01:49 | 46.17012 | 1.14832 | 37003 ft | 434 kts | 169° |
| 2026-05-09 01:50 | 46.11155 | 1.16770 | 36987 ft | 435 kts | 170° |
| 2026-05-09 01:50 | 46.05213 | 1.18731 | 36990 ft | 436 kts | 170° |
| 2026-05-09 01:51 | 45.99298 | 1.20677 | 36996 ft | 437 kts | 170° |
| 2026-05-09 01:51 | 45.93356 | 1.22632 | 37007 ft | 437 kts | 170° |
| 2026-05-09 01:52 | 45.87412 | 1.24586 | 37015 ft | 436 kts | 170° |
| 2026-05-09 01:52 | 45.81527 | 1.26510 | 37015 ft | 436 kts | 170° |
| 2026-05-09 01:53 | 45.75577 | 1.28457 | 37005 ft | 435 kts | 171° |
| 2026-05-09 01:53 | 45.69682 | 1.30380 | 37005 ft | 435 kts | 171° |
| 2026-05-09 01:54 | 45.63808 | 1.32290 | 36995 ft | 434 kts | 171° |
| 2026-05-09 01:54 | 45.57924 | 1.34199 | 36990 ft | 434 kts | 171° |
| 2026-05-09 01:55 | 45.52008 | 1.36120 | 36995 ft | 433 kts | 171° |
| 2026-05-09 01:55 | 45.46135 | 1.38019 | 36988 ft | 432 kts | 172° |
| 2026-05-09 01:56 | 45.40255 | 1.39904 | 36981 ft | 433 kts | 172° |
| 2026-05-09 01:56 | 45.34413 | 1.41779 | 36980 ft | 432 kts | 172° |
| 2026-05-09 01:57 | 45.28518 | 1.43670 | 36976 ft | 433 kts | 172° |
| 2026-05-09 01:57 | 45.22669 | 1.45543 | 36985 ft | 433 kts | 172° |
| 2026-05-09 01:58 | 45.16758 | 1.47431 | 36968 ft | 433 kts | 173° |
| 2026-05-09 01:58 | 45.10873 | 1.49306 | 36999 ft | 434 kts | 173° |
| 2026-05-09 01:59 | 45.04989 | 1.51181 | 36988 ft | 434 kts | 173° |
| 2026-05-09 01:59 | 44.99090 | 1.53054 | 36998 ft | 433 kts | 173° |
| 2026-05-09 02:00 | 44.93238 | 1.54910 | 37012 ft | 433 kts | 173° |
| 2026-05-09 02:00 | 44.87368 | 1.56766 | 37002 ft | 432 kts | 173° |
| 2026-05-09 02:01 | 44.81464 | 1.58629 | 37000 ft | 432 kts | 174° |
| 2026-05-09 02:01 | 44.75614 | 1.60472 | 36994 ft | 432 kts | 174° |
| 2026-05-09 02:02 | 44.69743 | 1.62318 | 37016 ft | 431 kts | 174° |
| 2026-05-09 02:02 | 44.63877 | 1.64159 | 36988 ft | 431 kts | 174° |
| 2026-05-09 02:03 | 44.58025 | 1.65991 | 37006 ft | 430 kts | 175° |
| 2026-05-09 02:03 | 44.52190 | 1.67814 | 36994 ft | 430 kts | 175° |
| 2026-05-09 02:04 | 44.46363 | 1.69635 | 37002 ft | 429 kts | 175° |
| 2026-05-09 02:04 | 44.40524 | 1.71453 | 36994 ft | 429 kts | 175° |
| 2026-05-09 02:05 | 44.34671 | 1.73272 | 36996 ft | 430 kts | 175° |
| 2026-05-09 02:05 | 44.28835 | 1.75006 | 36996 ft | 427 kts | 178° |
| 2026-05-09 02:06 | 44.22958 | 1.76307 | 36998 ft | 426 kts | 179° |
| 2026-05-09 02:07 | 44.14160 | 1.78260 | 36989 ft | 426 kts | 179° |
| 2026-05-09 02:07 | 44.08312 | 1.79556 | 36984 ft | 427 kts | 179° |
| 2026-05-09 02:08 | 44.02490 | 1.80840 | 36985 ft | 425 kts | 179° |
| 2026-05-09 02:08 | 43.96622 | 1.82112 | 36997 ft | 422 kts | 181° |
| 2026-05-09 02:09 | 43.90829 | 1.82823 | 36999 ft | 418 kts | 184° |
| 2026-05-09 02:09 | 43.84998 | 1.83394 | 36999 ft | 419 kts | 184° |
| 2026-05-09 02:10 | 43.79205 | 1.83960 | 36989 ft | 418 kts | 185° |
| 2026-05-09 02:10 | 43.73428 | 1.84521 | 36980 ft | 417 kts | 185° |
| 2026-05-09 02:11 | 43.67603 | 1.85085 | 36991 ft | 417 kts | 185° |
| 2026-05-09 02:11 | 43.61823 | 1.85644 | 36989 ft | 416 kts | 185° |
| 2026-05-09 02:12 | 43.56037 | 1.86204 | 36991 ft | 416 kts | 185° |
| 2026-05-09 02:12 | 43.50285 | 1.86759 | 36983 ft | 415 kts | 185° |
| 2026-05-09 02:13 | 43.44515 | 1.87317 | 36983 ft | 414 kts | 185° |
| 2026-05-09 02:13 | 43.38789 | 1.87869 | 36978 ft | 414 kts | 185° |
| 2026-05-09 02:14 | 43.33040 | 1.88420 | 36977 ft | 414 kts | 186° |
| 2026-05-09 02:14 | 43.27290 | 1.88962 | 36983 ft | 413 kts | 185° |
| 2026-05-09 02:15 | 43.21598 | 1.89504 | 36973 ft | 412 kts | 186° |
| 2026-05-09 02:15 | 43.15869 | 1.90047 | 36978 ft | 412 kts | 186° |
| 2026-05-09 02:16 | 43.10150 | 1.90591 | 36977 ft | 411 kts | 186° |
| 2026-05-09 02:16 | 43.04413 | 1.91138 | 36973 ft | 411 kts | 186° |
| 2026-05-09 02:17 | 42.98758 | 1.91677 | 36981 ft | 411 kts | 186° |
| 2026-05-09 02:17 | 42.93054 | 1.92216 | 36983 ft | 410 kts | 186° |
| 2026-05-09 02:18 | 42.87347 | 1.92756 | 37005 ft | 408 kts | 186° |
| 2026-05-09 02:18 | 42.81714 | 1.93292 | 37017 ft | 408 kts | 186° |
| 2026-05-09 02:19 | 42.76057 | 1.93827 | 37038 ft | 408 kts | 186° |
| 2026-05-09 02:19 | 42.70417 | 1.94417 | 37050 ft | 409 kts | 184° |
| 2026-05-09 02:20 | 42.64754 | 1.95658 | 37054 ft | 417 kts | 178° |
| 2026-05-09 02:20 | 42.59077 | 1.97617 | 37059 ft | 422 kts | 175° |
| 2026-05-09 02:21 | 42.53424 | 1.99646 | 37056 ft | 422 kts | 176° |
| 2026-05-09 02:21 | 42.47728 | 2.01692 | 37056 ft | 421 kts | 175° |
| 2026-05-09 02:22 | 42.42089 | 2.03717 | 37051 ft | 422 kts | 175° |
| 2026-05-09 02:22 | 42.36398 | 2.05754 | 37039 ft | 421 kts | 176° |
| 2026-05-09 02:23 | 42.30779 | 2.07747 | 37033 ft | 420 kts | 176° |
| 2026-05-09 02:23 | 42.25098 | 2.09756 | 37024 ft | 421 kts | 176° |
| 2026-05-09 02:24 | 42.19467 | 2.11750 | 37020 ft | 421 kts | 175° |
| 2026-05-09 02:24 | 42.13805 | 2.13753 | 37017 ft | 422 kts | 176° |
| 2026-05-09 02:25 | 42.08124 | 2.15633 | 37019 ft | 419 kts | 177° |
| 2026-05-09 02:25 | 42.02448 | 2.17561 | 37017 ft | 420 kts | 175° |
| 2026-05-09 02:26 | 41.96797 | 2.19635 | 37014 ft | 421 kts | 175° |
| 2026-05-09 02:26 | 41.91157 | 2.21687 | 37013 ft | 421 kts | 175° |
| 2026-05-09 02:27 | 41.85521 | 2.23702 | 37017 ft | 421 kts | 175° |
| 2026-05-09 02:27 | 41.79882 | 2.25688 | 37012 ft | 420 kts | 175° |
| 2026-05-09 02:28 | 41.74207 | 2.27671 | 37011 ft | 420 kts | 175° |
| 2026-05-09 02:28 | 41.68556 | 2.29635 | 37013 ft | 420 kts | 175° |
| 2026-05-09 02:29 | 41.62914 | 2.31596 | 37013 ft | 420 kts | 175° |
| 2026-05-09 02:29 | 41.57245 | 2.33566 | 37015 ft | 420 kts | 175° |
| 2026-05-09 02:30 | 41.51578 | 2.35535 | 37014 ft | 421 kts | 175° |
| 2026-05-09 02:30 | 41.45954 | 2.37483 | 37008 ft | 420 kts | 175° |
| 2026-05-09 02:31 | 41.40303 | 2.39438 | 37007 ft | 421 kts | 175° |
| 2026-05-09 02:31 | 41.34645 | 2.41392 | 37006 ft | 420 kts | 175° |
| 2026-05-09 02:32 | 41.28992 | 2.43342 | 37003 ft | 420 kts | 175° |
| 2026-05-09 02:32 | 41.23318 | 2.45294 | 37004 ft | 420 kts | 175° |
| 2026-05-09 02:33 | 41.17667 | 2.47235 | 37002 ft | 420 kts | 175° |
| 2026-05-09 02:33 | 41.12044 | 2.49162 | 37003 ft | 420 kts | 175° |
| 2026-05-09 02:34 | 41.06360 | 2.51109 | 36991 ft | 420 kts | 175° |
| 2026-05-09 02:34 | 41.00743 | 2.53031 | 36986 ft | 421 kts | 175° |
| 2026-05-09 02:35 | 40.95041 | 2.54973 | 36263 ft | 421 kts | 175° |
| 2026-05-09 02:35 | 40.92243 | 2.55928 | 35649 ft | 419 kts | 175° |
| 2026-05-09 02:35 | 40.89441 | 2.56881 | 34981 ft | 419 kts | 174° |
| 2026-05-09 02:35 | 40.86615 | 2.57838 | 34266 ft | 421 kts | 174° |
| 2026-05-09 02:36 | 40.83784 | 2.58797 | 33483 ft | 422 kts | 174° |
| 2026-05-09 02:36 | 40.80935 | 2.59763 | 32693 ft | 423 kts | 173° |
| 2026-05-09 02:36 | 40.78135 | 2.60717 | 32166 ft | 418 kts | 173° |
| 2026-05-09 02:36 | 40.75309 | 2.61681 | 31673 ft | 413 kts | 173° |
| 2026-05-09 02:37 | 40.72571 | 2.62615 | 31185 ft | 408 kts | 173° |
| 2026-05-09 02:37 | 40.69818 | 2.63549 | 30696 ft | 403 kts | 173° |
| 2026-05-09 02:37 | 40.67133 | 2.64459 | 30209 ft | 399 kts | 173° |
| 2026-05-09 02:37 | 40.64442 | 2.65369 | 29729 ft | 395 kts | 174° |
| 2026-05-09 02:38 | 40.61807 | 2.66260 | 29267 ft | 391 kts | 174° |
| 2026-05-09 02:38 | 40.59210 | 2.67136 | 28798 ft | 388 kts | 173° |
| 2026-05-09 02:38 | 40.56615 | 2.68010 | 28326 ft | 384 kts | 173° |
| 2026-05-09 02:38 | 40.54015 | 2.68884 | 27852 ft | 381 kts | 173° |
| 2026-05-09 02:39 | 40.51496 | 2.69855 | 27389 ft | 381 kts | 168° |
| 2026-05-09 02:39 | 40.49026 | 2.71110 | 26922 ft | 382 kts | 163° |
| 2026-05-09 02:39 | 40.46652 | 2.72636 | 26453 ft | 382 kts | 159° |
| 2026-05-09 02:39 | 40.44311 | 2.74319 | 25994 ft | 379 kts | 158° |
| 2026-05-09 02:40 | 40.42043 | 2.75970 | 25542 ft | 376 kts | 158° |
| 2026-05-09 02:40 | 40.39765 | 2.77629 | 25079 ft | 373 kts | 157° |
| 2026-05-09 02:40 | 40.37490 | 2.79282 | 24614 ft | 370 kts | 157° |
| 2026-05-09 02:40 | 40.35262 | 2.80897 | 24163 ft | 367 kts | 157° |
| 2026-05-09 02:41 | 40.33031 | 2.82513 | 23711 ft | 364 kts | 157° |
| 2026-05-09 02:41 | 40.30831 | 2.84105 | 23253 ft | 361 kts | 156° |
| 2026-05-09 02:41 | 40.28630 | 2.85699 | 22791 ft | 358 kts | 156° |
| 2026-05-09 02:41 | 40.26467 | 2.87261 | 22339 ft | 355 kts | 156° |
| 2026-05-09 02:42 | 40.24316 | 2.88811 | 21881 ft | 353 kts | 156° |
| 2026-05-09 02:42 | 40.22164 | 2.90362 | 21428 ft | 351 kts | 156° |
| 2026-05-09 02:42 | 40.20043 | 2.91889 | 20974 ft | 349 kts | 156° |
| 2026-05-09 02:42 | 40.17950 | 2.93398 | 20526 ft | 347 kts | 156° |
| 2026-05-09 02:43 | 40.15848 | 2.94915 | 20078 ft | 345 kts | 156° |
| 2026-05-09 02:43 | 40.13731 | 2.96441 | 19622 ft | 343 kts | 156° |
| 2026-05-09 02:43 | 40.11645 | 2.97944 | 19170 ft | 342 kts | 156° |
| 2026-05-09 02:43 | 40.09582 | 2.99428 | 18784 ft | 338 kts | 156° |
| 2026-05-09 02:44 | 40.07551 | 3.00892 | 18623 ft | 326 kts | 156° |
| 2026-05-09 02:44 | 40.05543 | 3.02070 | 18433 ft | 309 kts | 172° |
| 2026-05-09 02:44 | 40.03475 | 3.02204 | 18158 ft | 296 kts | 193° |
| 2026-05-09 02:44 | 40.01534 | 3.01471 | 17758 ft | 292 kts | 202° |
| 2026-05-09 02:45 | 39.99614 | 3.00596 | 17369 ft | 291 kts | 202° |
| 2026-05-09 02:45 | 39.97720 | 2.99740 | 16984 ft | 290 kts | 201° |
| 2026-05-09 02:45 | 39.95815 | 2.98886 | 16600 ft | 289 kts | 201° |
| 2026-05-09 02:45 | 39.93907 | 2.98037 | 16216 ft | 288 kts | 202° |
| 2026-05-09 02:46 | 39.92009 | 2.97194 | 15845 ft | 287 kts | 201° |
| 2026-05-09 02:46 | 39.90130 | 2.96362 | 15482 ft | 286 kts | 202° |
| 2026-05-09 02:46 | 39.88239 | 2.95524 | 15124 ft | 285 kts | 202° |
| 2026-05-09 02:46 | 39.86365 | 2.94695 | 14760 ft | 284 kts | 202° |
| 2026-05-09 02:47 | 39.84537 | 2.93815 | 14390 ft | 281 kts | 210° |
| 2026-05-09 02:47 | 39.82956 | 2.92348 | 14021 ft | 277 kts | 226° |
| 2026-05-09 02:47 | 39.81772 | 2.90402 | 13653 ft | 275 kts | 236° |
| 2026-05-09 02:47 | 39.80696 | 2.88353 | 13302 ft | 274 kts | 236° |
| 2026-05-09 02:48 | 39.79637 | 2.86319 | 12993 ft | 270 kts | 236° |
| 2026-05-09 02:48 | 39.78606 | 2.84344 | 12831 ft | 261 kts | 236° |
| 2026-05-09 02:48 | 39.77606 | 2.82437 | 12751 ft | 249 kts | 236° |
| 2026-05-09 02:48 | 39.76652 | 2.80621 | 12501 ft | 245 kts | 236° |
| 2026-05-09 02:49 | 39.75691 | 2.78796 | 12179 ft | 244 kts | 236° |
| 2026-05-09 02:49 | 39.74733 | 2.76976 | 11858 ft | 244 kts | 236° |
| 2026-05-09 02:49 | 39.73773 | 2.75157 | 11535 ft | 243 kts | 235° |
| 2026-05-09 02:49 | 39.72823 | 2.73359 | 11216 ft | 242 kts | 235° |
| 2026-05-09 02:50 | 39.71875 | 2.71563 | 10907 ft | 240 kts | 235° |
| 2026-05-09 02:50 | 39.70930 | 2.69771 | 10579 ft | 240 kts | 236° |
| 2026-05-09 02:50 | 39.70000 | 2.68007 | 10236 ft | 239 kts | 235° |
| 2026-05-09 02:50 | 39.69059 | 2.66218 | 9903 ft | 239 kts | 235° |
| 2026-05-09 02:51 | 39.68131 | 2.64459 | 9589 ft | 237 kts | 235° |
| 2026-05-09 02:51 | 39.67204 | 2.62703 | 9272 ft | 237 kts | 235° |
| 2026-05-09 02:51 | 39.66273 | 2.60939 | 8953 ft | 236 kts | 235° |
| 2026-05-09 02:51 | 39.65352 | 2.59196 | 8639 ft | 235 kts | 235° |
| 2026-05-09 02:52 | 39.64432 | 2.57454 | 8321 ft | 235 kts | 235° |
| 2026-05-09 02:52 | 39.63509 | 2.55710 | 8007 ft | 235 kts | 235° |
| 2026-05-09 02:52 | 39.62585 | 2.53965 | 7699 ft | 234 kts | 234° |
| 2026-05-09 02:52 | 39.61667 | 2.52233 | 7389 ft | 234 kts | 234° |
| 2026-05-09 02:53 | 39.60737 | 2.50478 | 7077 ft | 234 kts | 234° |
| 2026-05-09 02:53 | 39.59817 | 2.48745 | 6767 ft | 234 kts | 234° |
| 2026-05-09 02:53 | 39.58908 | 2.47032 | 6468 ft | 233 kts | 234° |
| 2026-05-09 02:53 | 39.57983 | 2.45291 | 6167 ft | 234 kts | 234° |
| 2026-05-09 02:54 | 39.57060 | 2.43553 | 5870 ft | 234 kts | 234° |
| 2026-05-09 02:54 | 39.56056 | 2.41922 | 5554 ft | 233 kts | 217° |
| 2026-05-09 02:54 | 39.54622 | 2.41133 | 5452 ft | 225 kts | 185° |
| 2026-05-09 02:54 | 39.53054 | 2.41380 | 5102 ft | 231 kts | 156° |
| 2026-05-09 02:55 | 39.51694 | 2.42521 | 4582 ft | 238 kts | 142° |
| 2026-05-09 02:55 | 39.50364 | 2.43811 | 4244 ft | 239 kts | 142° |
| 2026-05-09 02:55 | 39.49028 | 2.45084 | 3953 ft | 236 kts | 142° |
| 2026-05-09 02:55 | 39.47706 | 2.46333 | 3653 ft | 235 kts | 142° |
| 2026-05-09 02:56 | 39.46422 | 2.47589 | 3334 ft | 233 kts | 133° |
| 2026-05-09 02:56 | 39.45629 | 2.49354 | 2998 ft | 228 kts | 101° |
| 2026-05-09 02:56 | 39.45669 | 2.51370 | 2744 ft | 224 kts | 76° |
| 2026-05-09 02:56 | 39.46243 | 2.53225 | 2567 ft | 218 kts | 64° |
| 2026-05-09 02:57 | 39.47008 | 2.54862 | 2497 ft | 207 kts | 59° |
| 2026-05-09 02:57 | 39.47764 | 2.56368 | 2489 ft | 193 kts | 60° |
| 2026-05-09 02:57 | 39.48465 | 2.57802 | 2333 ft | 187 kts | 61° |
| 2026-05-09 02:57 | 39.49148 | 2.59242 | 2089 ft | 186 kts | 61° |
| 2026-05-09 02:58 | 39.49800 | 2.60633 | 1922 ft | 177 kts | 61° |
| 2026-05-09 02:58 | 39.50429 | 2.61975 | 1655 ft | 171 kts | 61° |
| 2026-05-09 02:58 | 39.51017 | 2.63226 | 1427 ft | 157 kts | 61° |
| 2026-05-09 02:58 | 39.51559 | 2.64376 | 1200 ft | 142 kts | 61° |
| 2026-05-09 02:59 | 39.52050 | 2.65418 | 993 ft | 129 kts | 61° |
| 2026-05-09 02:59 | 39.52513 | 2.66405 | 835 ft | 127 kts | 60° |
| 2026-05-09 02:59 | 39.52974 | 2.67372 | 682 ft | 126 kts | 60° |
| 2026-05-09 02:59 | 39.53427 | 2.68339 | 528 ft | 126 kts | 60° |
| 2026-05-09 03:00 | 39.53885 | 2.69311 | 363 ft | 126 kts | 59° |
| 2026-05-09 03:00 | 39.54336 | 2.70276 | 199 ft | 125 kts | 59° |
| 2026-05-09 03:00 | 39.54793 | 2.71235 | 42 ft | 124 kts | 58° |
| 2026-05-09 03:00 | 39.55197 | 2.72093 | 11 ft | 92 kts | 59° |
| 2026-05-09 03:01 | 39.55443 | 2.72622 | 5 ft | 47 kts | 64° |
| 2026-05-09 03:01 | 39.55496 | 2.72981 | 10 ft | 33 kts | 89° |
| 2026-05-09 03:01 | 39.55503 | 2.73182 | 14 ft | 16 kts | 69° |
| 2026-05-09 03:01 | 39.55559 | 2.73302 | 15 ft | 15 kts | 58° |
| 2026-05-09 03:02 | 39.55616 | 2.73423 | 16 ft | 15 kts | 59° |
| 2026-05-09 03:02 | 39.55586 | 2.73529 | 19 ft | 13 kts | 148° |
| 2026-05-09 03:02 | 39.55509 | 2.73575 | 21 ft | 10 kts | 196° |
| 2026-05-09 03:02 | 39.55463 | 2.73489 | 21 ft | 12 kts | 239° |
| 2026-05-09 03:03 | 39.55415 | 2.73388 | 20 ft | 14 kts | 237° |
| 2026-05-09 03:03 | 39.55358 | 2.73268 | 18 ft | 16 kts | 239° |
| 2026-05-09 03:03 | 39.55295 | 2.73133 | 16 ft | 18 kts | 238° |
| 2026-05-09 03:03 | 39.55230 | 2.73004 | 12 ft | 14 kts | 237° |
| 2026-05-09 03:04 | 39.55183 | 2.72948 | 12 ft | 8 kts | 168° |
| 2026-05-09 03:04 | 39.55131 | 2.72967 | 14 ft | 4 kts | 167° |
| 2026-05-09 03:04 | 39.55128 | 2.72968 | 14 ft | 0 kts | 167° |